sensor_id;sensor_type;location;lat;lon;timestamp;temperature;humidity
11836;DHT22;5977;51.972;7.640;2023-09-07T00:00:19;21.60;99.90
11836;DHT22;5977;51.972;7.640;2023-09-07T00:02:47;21.70;99.90
11836;DHT22;5977;51.972;7.640;2023-09-07T00:05:16;21.60;99.90
11836;DHT22;5977;51.972;7.640;2023-09-07T00:07:44;21.60;99.90
11836;DHT22;5977;51.972;7.640;2023-09-07T00:10:12;21.50;99.90
11836;DHT22;5977;51.972;7.640;2023-09-07T00:12:40;21.50;99.90
11836;DHT22;5977;51.972;7.640;2023-09-07T00:15:09;21.50;99.90
11836;DHT22;5977;51.972;7.640;2023-09-07T00:17:38;21.30;99.90
11836;DHT22;5977;51.972;7.640;2023-09-07T00:20:06;21.10;99.90
11836;DHT22;5977;51.972;7.640;2023-09-07T00:22:39;21.30;99.90
11836;DHT22;5977;51.972;7.640;2023-09-07T00:25:08;21.30;99.90
11836;DHT22;5977;51.972;7.640;2023-09-07T00:27:36;21.10;99.90
11836;DHT22;5977;51.972;7.640;2023-09-07T00:30:05;21.10;99.90
11836;DHT22;5977;51.972;7.640;2023-09-07T00:32:36;21.20;99.90
11836;DHT22;5977;51.972;7.640;2023-09-07T00:35:05;21.10;99.90
11836;DHT22;5977;51.972;7.640;2023-09-07T00:37:33;21.20;99.90
11836;DHT22;5977;51.972;7.640;2023-09-07T00:40:03;21.10;99.90
11836;DHT22;5977;51.972;7.640;2023-09-07T00:42:35;20.90;99.90
11836;DHT22;5977;51.972;7.640;2023-09-07T00:45:04;20.90;99.90
11836;DHT22;5977;51.972;7.640;2023-09-07T00:47:34;20.90;99.90
11836;DHT22;5977;51.972;7.640;2023-09-07T00:50:03;21.00;99.90
11836;DHT22;5977;51.972;7.640;2023-09-07T00:52:34;20.90;99.90
11836;DHT22;5977;51.972;7.640;2023-09-07T00:55:09;21.10;99.90
11836;DHT22;5977;51.972;7.640;2023-09-07T00:57:39;21.00;99.90
11836;DHT22;5977;51.972;7.640;2023-09-07T01:00:10;21.10;99.90
11836;DHT22;5977;51.972;7.640;2023-09-07T01:02:38;21.00;99.90
11836;DHT22;5977;51.972;7.640;2023-09-07T01:05:07;20.90;99.90
11836;DHT22;5977;51.972;7.640;2023-09-07T01:07:38;20.80;99.90
11836;DHT22;5977;51.972;7.640;2023-09-07T01:10:09;20.60;99.90
11836;DHT22;5977;51.972;7.640;2023-09-07T01:12:37;20.60;99.90
11836;DHT22;5977;51.972;7.640;2023-09-07T01:15:06;20.70;99.90
11836;DHT22;5977;51.972;7.640;2023-09-07T01:17:35;20.70;99.90
11836;DHT22;5977;51.972;7.640;2023-09-07T01:20:05;20.60;99.90
11836;DHT22;5977;51.972;7.640;2023-09-07T01:22:38;20.60;99.90
11836;DHT22;5977;51.972;7.640;2023-09-07T01:25:07;20.50;99.90
11836;DHT22;5977;51.972;7.640;2023-09-07T01:27:36;20.60;99.90
11836;DHT22;5977;51.972;7.640;2023-09-07T01:30:05;20.40;99.90
11836;DHT22;5977;51.972;7.640;2023-09-07T01:32:33;20.10;99.90
11836;DHT22;5977;51.972;7.640;2023-09-07T01:35:03;20.10;99.90
11836;DHT22;5977;51.972;7.640;2023-09-07T01:37:32;20.10;99.90
11836;DHT22;5977;51.972;7.640;2023-09-07T01:40:02;20.10;99.90
11836;DHT22;5977;51.972;7.640;2023-09-07T01:42:34;20.10;99.90
11836;DHT22;5977;51.972;7.640;2023-09-07T01:45:02;20.30;99.90
11836;DHT22;5977;51.972;7.640;2023-09-07T01:47:30;20.40;99.90
11836;DHT22;5977;51.972;7.640;2023-09-07T01:49:58;20.40;99.90
11836;DHT22;5977;51.972;7.640;2023-09-07T01:52:26;20.40;99.90
11836;DHT22;5977;51.972;7.640;2023-09-07T01:54:55;20.30;99.90
11836;DHT22;5977;51.972;7.640;2023-09-07T01:57:24;20.00;99.90
11836;DHT22;5977;51.972;7.640;2023-09-07T01:59:52;20.10;99.90
11836;DHT22;5977;51.972;7.640;2023-09-07T02:02:21;20.10;99.90
11836;DHT22;5977;51.972;7.640;2023-09-07T02:04:48;20.10;99.90
11836;DHT22;5977;51.972;7.640;2023-09-07T02:07:16;20.10;99.90
11836;DHT22;5977;51.972;7.640;2023-09-07T02:09:44;19.90;99.90
11836;DHT22;5977;51.972;7.640;2023-09-07T02:12:12;19.80;99.90
11836;DHT22;5977;51.972;7.640;2023-09-07T02:14:42;19.70;99.90
11836;DHT22;5977;51.972;7.640;2023-09-07T02:17:10;19.80;99.90
11836;DHT22;5977;51.972;7.640;2023-09-07T02:19:44;20.00;99.90
11836;DHT22;5977;51.972;7.640;2023-09-07T02:22:12;20.10;99.90
11836;DHT22;5977;51.972;7.640;2023-09-07T02:24:40;20.00;99.90
11836;DHT22;5977;51.972;7.640;2023-09-07T02:27:08;19.90;99.90
11836;DHT22;5977;51.972;7.640;2023-09-07T02:29:36;20.00;99.90
11836;DHT22;5977;51.972;7.640;2023-09-07T02:32:06;20.10;99.90
11836;DHT22;5977;51.972;7.640;2023-09-07T02:34:35;19.80;99.90
11836;DHT22;5977;51.972;7.640;2023-09-07T02:37:04;19.80;99.90
11836;DHT22;5977;51.972;7.640;2023-09-07T02:39:32;19.80;99.90
11836;DHT22;5977;51.972;7.640;2023-09-07T02:42:00;19.80;99.90
11836;DHT22;5977;51.972;7.640;2023-09-07T02:44:29;20.00;99.90
11836;DHT22;5977;51.972;7.640;2023-09-07T02:46:57;20.10;99.90
11836;DHT22;5977;51.972;7.640;2023-09-07T02:49:27;20.30;99.90
11836;DHT22;5977;51.972;7.640;2023-09-07T02:51:55;20.30;99.90
11836;DHT22;5977;51.972;7.640;2023-09-07T02:54:23;20.00;99.90
11836;DHT22;5977;51.972;7.640;2023-09-07T02:56:51;20.00;99.90
11836;DHT22;5977;51.972;7.640;2023-09-07T02:59:19;20.00;99.90
11836;DHT22;5977;51.972;7.640;2023-09-07T03:01:48;19.80;99.90
11836;DHT22;5977;51.972;7.640;2023-09-07T03:04:16;19.90;99.90
11836;DHT22;5977;51.972;7.640;2023-09-07T03:06:45;19.90;99.90
11836;DHT22;5977;51.972;7.640;2023-09-07T03:09:13;20.10;99.90
11836;DHT22;5977;51.972;7.640;2023-09-07T03:11:41;20.00;99.90
11836;DHT22;5977;51.972;7.640;2023-09-07T03:14:09;20.10;99.90
11836;DHT22;5977;51.972;7.640;2023-09-07T03:16:37;19.90;99.90
11836;DHT22;5977;51.972;7.640;2023-09-07T03:19:07;19.70;99.90
11836;DHT22;5977;51.972;7.640;2023-09-07T03:21:35;19.70;99.90
11836;DHT22;5977;51.972;7.640;2023-09-07T03:24:05;19.80;99.90
11836;DHT22;5977;51.972;7.640;2023-09-07T03:26:33;19.80;99.90
11836;DHT22;5977;51.972;7.640;2023-09-07T03:29:01;19.70;99.90
11836;DHT22;5977;51.972;7.640;2023-09-07T03:31:30;19.80;99.90
11836;DHT22;5977;51.972;7.640;2023-09-07T03:33:59;19.90;99.90
11836;DHT22;5977;51.972;7.640;2023-09-07T03:36:27;19.80;99.90
11836;DHT22;5977;51.972;7.640;2023-09-07T03:38:55;19.90;99.90
11836;DHT22;5977;51.972;7.640;2023-09-07T03:41:24;19.60;99.90
11836;DHT22;5977;51.972;7.640;2023-09-07T03:43:57;19.40;99.90
11836;DHT22;5977;51.972;7.640;2023-09-07T03:46:26;19.50;99.90
11836;DHT22;5977;51.972;7.640;2023-09-07T03:48:54;19.40;99.90
11836;DHT22;5977;51.972;7.640;2023-09-07T03:51:22;19.30;99.90
11836;DHT22;5977;51.972;7.640;2023-09-07T03:53:51;19.40;99.90
11836;DHT22;5977;51.972;7.640;2023-09-07T03:56:19;19.40;99.90
11836;DHT22;5977;51.972;7.640;2023-09-07T03:58:48;19.30;99.90
11836;DHT22;5977;51.972;7.640;2023-09-07T04:01:16;19.40;99.90
11836;DHT22;5977;51.972;7.640;2023-09-07T04:03:45;19.50;99.90
11836;DHT22;5977;51.972;7.640;2023-09-07T04:06:13;19.40;99.90
11836;DHT22;5977;51.972;7.640;2023-09-07T04:08:41;19.30;99.90
11836;DHT22;5977;51.972;7.640;2023-09-07T04:11:09;19.30;99.90
11836;DHT22;5977;51.972;7.640;2023-09-07T04:13:37;19.20;99.90
11836;DHT22;5977;51.972;7.640;2023-09-07T04:16:08;19.20;99.90
11836;DHT22;5977;51.972;7.640;2023-09-07T04:18:37;19.10;99.90
11836;DHT22;5977;51.972;7.640;2023-09-07T04:21:05;19.20;99.90
11836;DHT22;5977;51.972;7.640;2023-09-07T04:23:34;19.20;99.90
11836;DHT22;5977;51.972;7.640;2023-09-07T04:26:06;19.50;99.90
11836;DHT22;5977;51.972;7.640;2023-09-07T04:28:34;19.50;99.90
11836;DHT22;5977;51.972;7.640;2023-09-07T04:31:02;19.40;99.90
11836;DHT22;5977;51.972;7.640;2023-09-07T04:33:32;19.30;99.90
11836;DHT22;5977;51.972;7.640;2023-09-07T04:36:07;19.30;99.90
11836;DHT22;5977;51.972;7.640;2023-09-07T04:38:37;19.30;99.90
11836;DHT22;5977;51.972;7.640;2023-09-07T04:41:08;19.30;99.90
11836;DHT22;5977;51.972;7.640;2023-09-07T04:43:38;19.40;99.90
11836;DHT22;5977;51.972;7.640;2023-09-07T04:46:07;19.40;99.90
11836;DHT22;5977;51.972;7.640;2023-09-07T04:48:36;19.40;99.90
11836;DHT22;5977;51.972;7.640;2023-09-07T04:51:05;19.40;99.90
11836;DHT22;5977;51.972;7.640;2023-09-07T04:53:35;19.10;99.90
11836;DHT22;5977;51.972;7.640;2023-09-07T04:56:05;19.00;99.90
11836;DHT22;5977;51.972;7.640;2023-09-07T04:58:33;19.10;99.90
11836;DHT22;5977;51.972;7.640;2023-09-07T05:01:02;19.30;99.90
11836;DHT22;5977;51.972;7.640;2023-09-07T05:03:31;19.40;99.90
11836;DHT22;5977;51.972;7.640;2023-09-07T05:06:01;19.50;99.90
11836;DHT22;5977;51.972;7.640;2023-09-07T05:08:31;19.60;99.90
11836;DHT22;5977;51.972;7.640;2023-09-07T05:11:02;19.50;99.90
11836;DHT22;5977;51.972;7.640;2023-09-07T05:13:31;19.40;99.90
11836;DHT22;5977;51.972;7.640;2023-09-07T05:16:01;19.50;99.90
11836;DHT22;5977;51.972;7.640;2023-09-07T05:18:29;19.60;99.90
11836;DHT22;5977;51.972;7.640;2023-09-07T05:20:58;19.60;99.90
11836;DHT22;5977;51.972;7.640;2023-09-07T05:23:27;19.50;99.90
11836;DHT22;5977;51.972;7.640;2023-09-07T05:25:56;19.40;99.90
11836;DHT22;5977;51.972;7.640;2023-09-07T05:28:25;19.40;99.90
11836;DHT22;5977;51.972;7.640;2023-09-07T05:30:55;19.60;99.90
11836;DHT22;5977;51.972;7.640;2023-09-07T05:33:24;19.60;99.90
11836;DHT22;5977;51.972;7.640;2023-09-07T05:35:52;19.70;99.90
11836;DHT22;5977;51.972;7.640;2023-09-07T05:38:20;19.60;99.90
11836;DHT22;5977;51.972;7.640;2023-09-07T05:40:50;19.50;99.90
11836;DHT22;5977;51.972;7.640;2023-09-07T05:43:22;19.70;99.90
11836;DHT22;5977;51.972;7.640;2023-09-07T05:45:50;19.50;99.90
11836;DHT22;5977;51.972;7.640;2023-09-07T05:48:18;19.40;99.90
11836;DHT22;5977;51.972;7.640;2023-09-07T05:50:47;19.60;99.90
11836;DHT22;5977;51.972;7.640;2023-09-07T05:53:19;19.70;99.90
11836;DHT22;5977;51.972;7.640;2023-09-07T05:55:47;19.50;99.90
11836;DHT22;5977;51.972;7.640;2023-09-07T05:58:17;19.40;99.90
11836;DHT22;5977;51.972;7.640;2023-09-07T06:00:45;19.50;99.90
11836;DHT22;5977;51.972;7.640;2023-09-07T06:07:19;19.80;99.90
11836;DHT22;5977;51.972;7.640;2023-09-07T06:09:47;19.90;99.90
11836;DHT22;5977;51.972;7.640;2023-09-07T06:12:15;19.80;99.90
11836;DHT22;5977;51.972;7.640;2023-09-07T06:14:45;19.90;99.90
11836;DHT22;5977;51.972;7.640;2023-09-07T06:17:13;20.20;99.90
11836;DHT22;5977;51.972;7.640;2023-09-07T06:19:41;20.20;99.90
11836;DHT22;5977;51.972;7.640;2023-09-07T06:22:09;20.40;99.90
11836;DHT22;5977;51.972;7.640;2023-09-07T06:24:37;20.30;99.90
11836;DHT22;5977;51.972;7.640;2023-09-07T06:27:05;20.30;99.90
11836;DHT22;5977;51.972;7.640;2023-09-07T06:29:33;20.30;99.90
11836;DHT22;5977;51.972;7.640;2023-09-07T06:32:03;20.20;99.90
11836;DHT22;5977;51.972;7.640;2023-09-07T06:34:32;20.10;99.90
11836;DHT22;5977;51.972;7.640;2023-09-07T06:37:01;20.00;99.90
11836;DHT22;5977;51.972;7.640;2023-09-07T06:39:29;20.00;99.90
11836;DHT22;5977;51.972;7.640;2023-09-07T06:41:57;20.20;99.90
11836;DHT22;5977;51.972;7.640;2023-09-07T06:44:33;20.30;99.90
11836;DHT22;5977;51.972;7.640;2023-09-07T06:47:03;20.30;99.90
11836;DHT22;5977;51.972;7.640;2023-09-07T06:49:31;20.40;99.90
11836;DHT22;5977;51.972;7.640;2023-09-07T06:52:00;20.80;99.90
11836;DHT22;5977;51.972;7.640;2023-09-07T06:54:30;20.90;99.90
11836;DHT22;5977;51.972;7.640;2023-09-07T06:56:58;20.70;99.90
11836;DHT22;5977;51.972;7.640;2023-09-07T06:59:26;20.80;99.90
11836;DHT22;5977;51.972;7.640;2023-09-07T07:01:54;21.20;99.90
11836;DHT22;5977;51.972;7.640;2023-09-07T07:04:25;21.20;99.90
11836;DHT22;5977;51.972;7.640;2023-09-07T07:06:53;21.00;99.70
11836;DHT22;5977;51.972;7.640;2023-09-07T07:09:21;21.00;99.90
11836;DHT22;5977;51.972;7.640;2023-09-07T07:11:49;21.00;99.90
11836;DHT22;5977;51.972;7.640;2023-09-07T07:14:17;21.10;99.90
11836;DHT22;5977;51.972;7.640;2023-09-07T07:16:45;21.00;99.90
11836;DHT22;5977;51.972;7.640;2023-09-07T07:19:13;21.20;99.90
11836;DHT22;5977;51.972;7.640;2023-09-07T07:21:43;21.30;99.90
11836;DHT22;5977;51.972;7.640;2023-09-07T07:24:11;21.40;99.90
11836;DHT22;5977;51.972;7.640;2023-09-07T07:26:39;21.50;99.60
11836;DHT22;5977;51.972;7.640;2023-09-07T07:29:07;21.40;99.00
11836;DHT22;5977;51.972;7.640;2023-09-07T07:31:37;21.50;98.50
11836;DHT22;5977;51.972;7.640;2023-09-07T07:34:05;21.60;98.40
11836;DHT22;5977;51.972;7.640;2023-09-07T07:36:33;21.60;98.80
11836;DHT22;5977;51.972;7.640;2023-09-07T07:39:05;22.00;98.00
11836;DHT22;5977;51.972;7.640;2023-09-07T07:41:34;21.90;97.30
11836;DHT22;5977;51.972;7.640;2023-09-07T07:44:03;21.90;97.50
11836;DHT22;5977;51.972;7.640;2023-09-07T07:46:31;21.80;96.80
11836;DHT22;5977;51.972;7.640;2023-09-07T07:48:59;22.40;96.40
11836;DHT22;5977;51.972;7.640;2023-09-07T07:51:27;23.30;95.10
11836;DHT22;5977;51.972;7.640;2023-09-07T07:53:55;23.50;94.10
11836;DHT22;5977;51.972;7.640;2023-09-07T07:56:25;23.90;93.20
11836;DHT22;5977;51.972;7.640;2023-09-07T07:58:55;24.20;92.30
11836;DHT22;5977;51.972;7.640;2023-09-07T08:01:24;24.40;91.60
11836;DHT22;5977;51.972;7.640;2023-09-07T08:03:54;24.50;91.20
11836;DHT22;5977;51.972;7.640;2023-09-07T08:06:24;24.60;90.80
11836;DHT22;5977;51.972;7.640;2023-09-07T08:08:52;24.70;90.50
11836;DHT22;5977;51.972;7.640;2023-09-07T08:11:20;24.80;90.30
11836;DHT22;5977;51.972;7.640;2023-09-07T08:13:52;24.80;90.20
11836;DHT22;5977;51.972;7.640;2023-09-07T08:16:21;24.90;90.00
11836;DHT22;5977;51.972;7.640;2023-09-07T08:18:50;24.90;89.90
11836;DHT22;5977;51.972;7.640;2023-09-07T08:21:21;25.00;89.70
11836;DHT22;5977;51.972;7.640;2023-09-07T08:23:49;25.00;89.60
11836;DHT22;5977;51.972;7.640;2023-09-07T08:26:16;25.00;89.40
11836;DHT22;5977;51.972;7.640;2023-09-07T08:28:45;25.00;89.20
11836;DHT22;5977;51.972;7.640;2023-09-07T08:31:15;25.10;89.10
11836;DHT22;5977;51.972;7.640;2023-09-07T08:33:48;25.10;88.80
11836;DHT22;5977;51.972;7.640;2023-09-07T08:36:18;25.10;88.90
11836;DHT22;5977;51.972;7.640;2023-09-07T08:38:50;25.10;89.00
11836;DHT22;5977;51.972;7.640;2023-09-07T08:41:20;25.10;88.90
11836;DHT22;5977;51.972;7.640;2023-09-07T08:43:53;25.10;88.80
11836;DHT22;5977;51.972;7.640;2023-09-07T08:46:23;25.10;88.40
11836;DHT22;5977;51.972;7.640;2023-09-07T08:48:52;25.10;88.30
11836;DHT22;5977;51.972;7.640;2023-09-07T08:51:22;25.10;88.10
11836;DHT22;5977;51.972;7.640;2023-09-07T08:53:54;25.10;86.80
11836;DHT22;5977;51.972;7.640;2023-09-07T08:56:23;25.10;86.50
11836;DHT22;5977;51.972;7.640;2023-09-07T08:58:51;25.10;86.30
11836;DHT22;5977;51.972;7.640;2023-09-07T09:01:20;25.20;85.80
11836;DHT22;5977;51.972;7.640;2023-09-07T09:03:51;25.20;85.60
11836;DHT22;5977;51.972;7.640;2023-09-07T09:06:20;25.20;85.30
11836;DHT22;5977;51.972;7.640;2023-09-07T09:08:52;25.20;85.10
11836;DHT22;5977;51.972;7.640;2023-09-07T09:11:21;25.30;85.00
11836;DHT22;5977;51.972;7.640;2023-09-07T09:13:51;25.30;84.80
11836;DHT22;5977;51.972;7.640;2023-09-07T09:16:19;25.30;84.50
11836;DHT22;5977;51.972;7.640;2023-09-07T09:18:49;25.30;84.20
11836;DHT22;5977;51.972;7.640;2023-09-07T09:21:19;25.30;84.70
11836;DHT22;5977;51.972;7.640;2023-09-07T09:23:48;25.40;83.70
11836;DHT22;5977;51.972;7.640;2023-09-07T09:26:17;25.40;83.70
11836;DHT22;5977;51.972;7.640;2023-09-07T09:28:45;25.40;83.50
11836;DHT22;5977;51.972;7.640;2023-09-07T09:31:14;25.40;83.30
11836;DHT22;5977;51.972;7.640;2023-09-07T09:33:42;25.50;83.20
11836;DHT22;5977;51.972;7.640;2023-09-07T09:36:16;25.50;82.90
11836;DHT22;5977;51.972;7.640;2023-09-07T09:38:47;25.50;82.90
11836;DHT22;5977;51.972;7.640;2023-09-07T09:41:17;25.50;82.70
11836;DHT22;5977;51.972;7.640;2023-09-07T09:43:46;25.50;82.50
11836;DHT22;5977;51.972;7.640;2023-09-07T09:46:17;25.50;82.50
11836;DHT22;5977;51.972;7.640;2023-09-07T09:48:45;25.50;82.40
11836;DHT22;5977;51.972;7.640;2023-09-07T09:51:15;25.60;82.20
11836;DHT22;5977;51.972;7.640;2023-09-07T09:53:44;25.60;82.10
11836;DHT22;5977;51.972;7.640;2023-09-07T09:56:12;25.60;81.80
11836;DHT22;5977;51.972;7.640;2023-09-07T09:58:41;25.60;81.80
11836;DHT22;5977;51.972;7.640;2023-09-07T10:01:09;25.60;81.80
11836;DHT22;5977;51.972;7.640;2023-09-07T10:03:44;25.60;81.70
11836;DHT22;5977;51.972;7.640;2023-09-07T10:06:22;25.60;81.50
11836;DHT22;5977;51.972;7.640;2023-09-07T10:08:57;25.70;81.40
11836;DHT22;5977;51.972;7.640;2023-09-07T10:11:30;25.70;81.20
11836;DHT22;5977;51.972;7.640;2023-09-07T10:13:59;25.70;81.10
11836;DHT22;5977;51.972;7.640;2023-09-07T10:16:41;25.70;82.30
11836;DHT22;5977;51.972;7.640;2023-09-07T10:19:17;25.70;83.10
11836;DHT22;5977;51.972;7.640;2023-09-07T10:21:46;25.70;83.50
11836;DHT22;5977;51.972;7.640;2023-09-07T10:24:24;25.50;83.20
11836;DHT22;5977;51.972;7.640;2023-09-07T10:26:57;25.50;83.50
11836;DHT22;5977;51.972;7.640;2023-09-07T10:29:26;25.50;83.40
11836;DHT22;5977;51.972;7.640;2023-09-07T10:31:54;25.50;84.00
11836;DHT22;5977;51.972;7.640;2023-09-07T10:34:34;25.70;84.20
11836;DHT22;5977;51.972;7.640;2023-09-07T10:37:05;25.90;84.60
11836;DHT22;5977;51.972;7.640;2023-09-07T10:39:34;26.00;85.40
11836;DHT22;5977;51.972;7.640;2023-09-07T10:42:02;26.10;86.20
11836;DHT22;5977;51.972;7.640;2023-09-07T10:44:30;26.30;86.00
11836;DHT22;5977;51.972;7.640;2023-09-07T10:46:58;26.40;86.40
11836;DHT22;5977;51.972;7.640;2023-09-07T10:49:27;26.50;87.30
11836;DHT22;5977;51.972;7.640;2023-09-07T10:51:55;26.60;87.20
11836;DHT22;5977;51.972;7.640;2023-09-07T10:54:24;26.50;87.30
11836;DHT22;5977;51.972;7.640;2023-09-07T10:56:53;26.50;86.90
11836;DHT22;5977;51.972;7.640;2023-09-07T10:59:27;26.50;86.80
11836;DHT22;5977;51.972;7.640;2023-09-07T11:02:03;26.50;86.30
11836;DHT22;5977;51.972;7.640;2023-09-07T11:04:32;26.50;86.20
11836;DHT22;5977;51.972;7.640;2023-09-07T11:07:01;26.40;86.60
11836;DHT22;5977;51.972;7.640;2023-09-07T11:09:32;26.40;86.70
11836;DHT22;5977;51.972;7.640;2023-09-07T11:12:04;26.40;86.80
11836;DHT22;5977;51.972;7.640;2023-09-07T11:14:32;26.40;86.60
11836;DHT22;5977;51.972;7.640;2023-09-07T11:17:01;26.40;86.80
11836;DHT22;5977;51.972;7.640;2023-09-07T11:19:32;26.40;87.20
11836;DHT22;5977;51.972;7.640;2023-09-07T11:22:00;26.50;87.00
11836;DHT22;5977;51.972;7.640;2023-09-07T11:24:32;26.50;87.90
11836;DHT22;5977;51.972;7.640;2023-09-07T11:27:02;26.60;87.60
11836;DHT22;5977;51.972;7.640;2023-09-07T11:29:31;26.60;87.90
11836;DHT22;5977;51.972;7.640;2023-09-07T11:32:06;26.60;87.50
11836;DHT22;5977;51.972;7.640;2023-09-07T11:34:34;26.80;86.80
11836;DHT22;5977;51.972;7.640;2023-09-07T11:37:03;26.80;86.80
11836;DHT22;5977;51.972;7.640;2023-09-07T11:39:32;26.80;86.50
11836;DHT22;5977;51.972;7.640;2023-09-07T11:42:00;27.00;86.10
11836;DHT22;5977;51.972;7.640;2023-09-07T11:44:28;26.90;86.20
11836;DHT22;5977;51.972;7.640;2023-09-07T11:46:56;26.90;86.40
11836;DHT22;5977;51.972;7.640;2023-09-07T11:49:24;26.90;86.50
11836;DHT22;5977;51.972;7.640;2023-09-07T11:51:52;26.90;86.60
11836;DHT22;5977;51.972;7.640;2023-09-07T11:54:20;26.80;86.70
11836;DHT22;5977;51.972;7.640;2023-09-07T11:56:51;26.80;87.00
11836;DHT22;5977;51.972;7.640;2023-09-07T11:59:18;26.80;86.70
11836;DHT22;5977;51.972;7.640;2023-09-07T12:01:46;26.90;86.60
11836;DHT22;5977;51.972;7.640;2023-09-07T12:04:15;26.90;86.30
11836;DHT22;5977;51.972;7.640;2023-09-07T12:06:44;26.90;86.30
11836;DHT22;5977;51.972;7.640;2023-09-07T12:09:11;27.00;86.20
11836;DHT22;5977;51.972;7.640;2023-09-07T12:11:41;26.90;85.90
11836;DHT22;5977;51.972;7.640;2023-09-07T12:14:11;27.00;85.70
11836;DHT22;5977;51.972;7.640;2023-09-07T12:16:39;27.00;85.50
11836;DHT22;5977;51.972;7.640;2023-09-07T12:19:07;27.00;85.60
11836;DHT22;5977;51.972;7.640;2023-09-07T12:21:35;27.00;85.40
11836;DHT22;5977;51.972;7.640;2023-09-07T12:24:03;27.00;85.40
11836;DHT22;5977;51.972;7.640;2023-09-07T12:26:31;27.00;82.90
11836;DHT22;5977;51.972;7.640;2023-09-07T12:28:59;27.10;83.10
11836;DHT22;5977;51.972;7.640;2023-09-07T12:31:28;27.10;82.90
11836;DHT22;5977;51.972;7.640;2023-09-07T12:33:56;27.10;82.70
11836;DHT22;5977;51.972;7.640;2023-09-07T12:36:25;27.10;82.60
11836;DHT22;5977;51.972;7.640;2023-09-07T12:38:56;27.10;82.70
11836;DHT22;5977;51.972;7.640;2023-09-07T12:41:27;27.10;82.90
11836;DHT22;5977;51.972;7.640;2023-09-07T12:43:55;27.00;82.80
11836;DHT22;5977;51.972;7.640;2023-09-07T12:46:23;27.00;83.10
11836;DHT22;5977;51.972;7.640;2023-09-07T12:48:53;27.00;83.10
11836;DHT22;5977;51.972;7.640;2023-09-07T12:51:21;27.00;83.20
11836;DHT22;5977;51.972;7.640;2023-09-07T12:53:49;27.00;83.30
11836;DHT22;5977;51.972;7.640;2023-09-07T12:56:18;27.00;83.30
11836;DHT22;5977;51.972;7.640;2023-09-07T12:58:47;26.90;83.20
11836;DHT22;5977;51.972;7.640;2023-09-07T13:01:16;27.00;83.10
11836;DHT22;5977;51.972;7.640;2023-09-07T13:03:45;27.00;83.10
11836;DHT22;5977;51.972;7.640;2023-09-07T13:06:14;27.00;83.00
11836;DHT22;5977;51.972;7.640;2023-09-07T13:08:44;27.00;83.00
11836;DHT22;5977;51.972;7.640;2023-09-07T13:11:12;27.10;83.10
11836;DHT22;5977;51.972;7.640;2023-09-07T13:13:40;27.00;82.80
11836;DHT22;5977;51.972;7.640;2023-09-07T13:16:08;27.10;82.80
11836;DHT22;5977;51.972;7.640;2023-09-07T13:18:36;27.10;82.70
11836;DHT22;5977;51.972;7.640;2023-09-07T13:21:05;27.10;82.80
11836;DHT22;5977;51.972;7.640;2023-09-07T13:23:35;27.10;82.50
11836;DHT22;5977;51.972;7.640;2023-09-07T13:26:03;27.00;82.50
11836;DHT22;5977;51.972;7.640;2023-09-07T13:28:30;26.90;79.70
11836;DHT22;5977;51.972;7.640;2023-09-07T13:30:59;26.90;79.10
11836;DHT22;5977;51.972;7.640;2023-09-07T13:33:28;26.90;78.40
11836;DHT22;5977;51.972;7.640;2023-09-07T13:35:57;26.90;78.70
11836;DHT22;5977;51.972;7.640;2023-09-07T13:38:25;27.00;74.70
11836;DHT22;5977;51.972;7.640;2023-09-07T13:40:54;27.00;76.70
11836;DHT22;5977;51.972;7.640;2023-09-07T13:43:22;27.00;75.50
11836;DHT22;5977;51.972;7.640;2023-09-07T13:45:50;26.90;75.30
11836;DHT22;5977;51.972;7.640;2023-09-07T13:48:18;27.00;76.80
11836;DHT22;5977;51.972;7.640;2023-09-07T13:50:45;27.10;77.10
11836;DHT22;5977;51.972;7.640;2023-09-07T13:53:14;27.20;76.70
11836;DHT22;5977;51.972;7.640;2023-09-07T13:55:42;27.30;75.90
11836;DHT22;5977;51.972;7.640;2023-09-07T13:58:14;27.30;75.60
11836;DHT22;5977;51.972;7.640;2023-09-07T14:00:43;27.40;71.50
11836;DHT22;5977;51.972;7.640;2023-09-07T14:03:10;27.30;71.40
11836;DHT22;5977;51.972;7.640;2023-09-07T14:05:39;27.30;72.60
11836;DHT22;5977;51.972;7.640;2023-09-07T14:08:07;27.20;73.70
11836;DHT22;5977;51.972;7.640;2023-09-07T14:10:35;27.20;74.80
11836;DHT22;5977;51.972;7.640;2023-09-07T14:13:03;27.10;72.50
11836;DHT22;5977;51.972;7.640;2023-09-07T14:15:33;27.10;72.90
11836;DHT22;5977;51.972;7.640;2023-09-07T14:18:01;27.10;72.90
11836;DHT22;5977;51.972;7.640;2023-09-07T14:20:29;27.10;71.70
11836;DHT22;5977;51.972;7.640;2023-09-07T14:22:57;27.00;73.80
11836;DHT22;5977;51.972;7.640;2023-09-07T14:25:26;27.00;74.50
11836;DHT22;5977;51.972;7.640;2023-09-07T14:27:54;27.10;73.00
11836;DHT22;5977;51.972;7.640;2023-09-07T14:30:22;27.20;72.10
11836;DHT22;5977;51.972;7.640;2023-09-07T14:32:51;27.40;72.60
11836;DHT22;5977;51.972;7.640;2023-09-07T14:35:19;27.40;73.10
11836;DHT22;5977;51.972;7.640;2023-09-07T14:37:47;27.40;72.60
11836;DHT22;5977;51.972;7.640;2023-09-07T14:40:15;27.50;73.40
11836;DHT22;5977;51.972;7.640;2023-09-07T14:42:45;27.50;72.50
11836;DHT22;5977;51.972;7.640;2023-09-07T14:45:13;27.40;69.50
11836;DHT22;5977;51.972;7.640;2023-09-07T14:47:41;27.30;71.10
11836;DHT22;5977;51.972;7.640;2023-09-07T14:50:11;27.30;70.90
11836;DHT22;5977;51.972;7.640;2023-09-07T14:52:39;27.30;68.70
11836;DHT22;5977;51.972;7.640;2023-09-07T14:55:10;27.40;69.00
11836;DHT22;5977;51.972;7.640;2023-09-07T14:57:39;27.40;68.80
11836;DHT22;5977;51.972;7.640;2023-09-07T15:00:08;27.40;69.40
11836;DHT22;5977;51.972;7.640;2023-09-07T15:02:37;27.50;70.60
11836;DHT22;5977;51.972;7.640;2023-09-07T15:05:06;27.50;69.80
11836;DHT22;5977;51.972;7.640;2023-09-07T15:07:35;27.50;69.90
11836;DHT22;5977;51.972;7.640;2023-09-07T15:10:04;27.50;69.60
11836;DHT22;5977;51.972;7.640;2023-09-07T15:12:32;27.50;70.20
11836;DHT22;5977;51.972;7.640;2023-09-07T15:15:00;27.50;71.00
11836;DHT22;5977;51.972;7.640;2023-09-07T15:17:28;27.50;70.50
11836;DHT22;5977;51.972;7.640;2023-09-07T15:19:56;27.60;70.20
11836;DHT22;5977;51.972;7.640;2023-09-07T15:22:23;27.70;70.70
11836;DHT22;5977;51.972;7.640;2023-09-07T15:24:54;27.60;69.40
11836;DHT22;5977;51.972;7.640;2023-09-07T15:27:22;27.70;71.30
11836;DHT22;5977;51.972;7.640;2023-09-07T15:29:50;27.70;70.70
11836;DHT22;5977;51.972;7.640;2023-09-07T15:32:19;27.70;70.30
11836;DHT22;5977;51.972;7.640;2023-09-07T15:34:47;27.70;70.20
11836;DHT22;5977;51.972;7.640;2023-09-07T15:37:15;27.70;70.30
11836;DHT22;5977;51.972;7.640;2023-09-07T15:39:43;27.60;71.10
11836;DHT22;5977;51.972;7.640;2023-09-07T15:42:13;27.50;72.40
11836;DHT22;5977;51.972;7.640;2023-09-07T15:44:40;27.60;71.60
11836;DHT22;5977;51.972;7.640;2023-09-07T15:47:11;27.70;71.80
11836;DHT22;5977;51.972;7.640;2023-09-07T15:49:39;27.70;71.00
11836;DHT22;5977;51.972;7.640;2023-09-07T15:52:08;27.70;71.80
11836;DHT22;5977;51.972;7.640;2023-09-07T15:54:37;27.70;71.80
11836;DHT22;5977;51.972;7.640;2023-09-07T15:57:05;27.70;71.30
11836;DHT22;5977;51.972;7.640;2023-09-07T15:59:34;27.70;70.60